sensor_id;sensor_type;location;lat;lon;timestamp;P1;durP1;ratioP1;P2;durP2;ratioP2
76729;SDS011;65653;53.106;18.046;2024-03-02T00:00:19;47.80;;;21.10;;
76729;SDS011;65653;53.106;18.046;2024-03-02T00:03:07;50.20;;;23.10;;
76729;SDS011;65653;53.106;18.046;2024-03-02T00:05:35;51.90;;;22.60;;
76729;SDS011;65653;53.106;18.046;2024-03-02T00:08:02;47.00;;;21.20;;
76729;SDS011;65653;53.106;18.046;2024-03-02T00:10:40;50.40;;;21.60;;
76729;SDS011;65653;53.106;18.046;2024-03-02T00:13:07;48.90;;;22.20;;
76729;SDS011;65653;53.106;18.046;2024-03-02T00:18:23;44.10;;;19.80;;
76729;SDS011;65653;53.106;18.046;2024-03-02T00:20:57;51.60;;;22.90;;
76729;SDS011;65653;53.106;18.046;2024-03-02T00:23:24;52.80;;;23.80;;
76729;SDS011;65653;53.106;18.046;2024-03-02T00:25:55;50.70;;;22.80;;
76729;SDS011;65653;53.106;18.046;2024-03-02T00:28:23;50.60;;;22.70;;
76729;SDS011;65653;53.106;18.046;2024-03-02T00:30:52;46.90;;;24.20;;
76729;SDS011;65653;53.106;18.046;2024-03-02T00:33:21;51.20;;;23.00;;
76729;SDS011;65653;53.106;18.046;2024-03-02T00:35:48;56.90;;;24.90;;
76729;SDS011;65653;53.106;18.046;2024-03-02T00:38:16;55.30;;;25.30;;
76729;SDS011;65653;53.106;18.046;2024-03-02T00:40:43;49.50;;;21.50;;
76729;SDS011;65653;53.106;18.046;2024-03-02T00:43:20;57.40;;;25.10;;
76729;SDS011;65653;53.106;18.046;2024-03-02T00:46:18;43.00;;;19.80;;
76729;SDS011;65653;53.106;18.046;2024-03-02T00:48:47;46.20;;;21.90;;
76729;SDS011;65653;53.106;18.046;2024-03-02T00:51:20;41.00;;;18.50;;
76729;SDS011;65653;53.106;18.046;2024-03-02T00:53:49;53.10;;;22.90;;
76729;SDS011;65653;53.106;18.046;2024-03-02T00:56:17;50.20;;;23.80;;
76729;SDS011;65653;53.106;18.046;2024-03-02T00:58:43;51.40;;;23.30;;
76729;SDS011;65653;53.106;18.046;2024-03-02T01:01:10;52.70;;;22.80;;
76729;SDS011;65653;53.106;18.046;2024-03-02T01:03:37;49.90;;;23.00;;
76729;SDS011;65653;53.106;18.046;2024-03-02T01:06:04;51.80;;;22.30;;
76729;SDS011;65653;53.106;18.046;2024-03-02T01:08:34;53.00;;;22.90;;
76729;SDS011;65653;53.106;18.046;2024-03-02T01:11:04;56.70;;;25.50;;
76729;SDS011;65653;53.106;18.046;2024-03-02T01:13:31;42.50;;;20.50;;
76729;SDS011;65653;53.106;18.046;2024-03-02T01:15:58;52.10;;;23.10;;
76729;SDS011;65653;53.106;18.046;2024-03-02T01:18:26;54.00;;;23.90;;
76729;SDS011;65653;53.106;18.046;2024-03-02T01:20:53;49.10;;;22.70;;
76729;SDS011;65653;53.106;18.046;2024-03-02T01:23:22;54.70;;;23.40;;
76729;SDS011;65653;53.106;18.046;2024-03-02T01:25:50;52.40;;;22.10;;
76729;SDS011;65653;53.106;18.046;2024-03-02T01:28:18;54.60;;;24.30;;
76729;SDS011;65653;53.106;18.046;2024-03-02T01:30:45;52.70;;;24.70;;
76729;SDS011;65653;53.106;18.046;2024-03-02T01:33:11;59.10;;;24.80;;
76729;SDS011;65653;53.106;18.046;2024-03-02T01:35:38;53.70;;;23.60;;
76729;SDS011;65653;53.106;18.046;2024-03-02T01:38:06;52.80;;;23.10;;
76729;SDS011;65653;53.106;18.046;2024-03-02T01:40:36;53.80;;;21.80;;
76729;SDS011;65653;53.106;18.046;2024-03-02T01:45:33;54.80;;;22.80;;
76729;SDS011;65653;53.106;18.046;2024-03-02T01:48:02;52.20;;;22.60;;
76729;SDS011;65653;53.106;18.046;2024-03-02T01:50:29;53.60;;;23.70;;
76729;SDS011;65653;53.106;18.046;2024-03-02T01:52:58;55.60;;;22.80;;
76729;SDS011;65653;53.106;18.046;2024-03-02T01:55:25;61.80;;;24.80;;
76729;SDS011;65653;53.106;18.046;2024-03-02T01:57:53;55.40;;;23.40;;
76729;SDS011;65653;53.106;18.046;2024-03-02T02:00:20;54.20;;;22.50;;
76729;SDS011;65653;53.106;18.046;2024-03-02T02:02:48;52.90;;;22.50;;
76729;SDS011;65653;53.106;18.046;2024-03-02T02:05:15;54.60;;;22.90;;
76729;SDS011;65653;53.106;18.046;2024-03-02T02:07:42;56.60;;;23.80;;
76729;SDS011;65653;53.106;18.046;2024-03-02T02:10:12;56.40;;;23.60;;
76729;SDS011;65653;53.106;18.046;2024-03-02T02:12:39;51.70;;;23.30;;
76729;SDS011;65653;53.106;18.046;2024-03-02T02:15:25;51.90;;;22.30;;
76729;SDS011;65653;53.106;18.046;2024-03-02T02:17:53;53.90;;;23.50;;
76729;SDS011;65653;53.106;18.046;2024-03-02T02:20:20;54.30;;;24.10;;
76729;SDS011;65653;53.106;18.046;2024-03-02T02:22:57;47.50;;;21.00;;
76729;SDS011;65653;53.106;18.046;2024-03-02T02:25:24;53.10;;;23.70;;
76729;SDS011;65653;53.106;18.046;2024-03-02T02:27:51;50.80;;;23.30;;
76729;SDS011;65653;53.106;18.046;2024-03-02T02:30:23;55.00;;;23.50;;
76729;SDS011;65653;53.106;18.046;2024-03-02T02:32:51;49.90;;;21.50;;
76729;SDS011;65653;53.106;18.046;2024-03-02T02:35:19;55.70;;;24.40;;
76729;SDS011;65653;53.106;18.046;2024-03-02T02:37:46;53.20;;;23.40;;
76729;SDS011;65653;53.106;18.046;2024-03-02T02:40:13;54.60;;;22.90;;
76729;SDS011;65653;53.106;18.046;2024-03-02T02:42:40;46.70;;;19.60;;
76729;SDS011;65653;53.106;18.046;2024-03-02T02:45:07;50.70;;;22.40;;
76729;SDS011;65653;53.106;18.046;2024-03-02T02:47:34;45.00;;;20.90;;
76729;SDS011;65653;53.106;18.046;2024-03-02T02:50:02;51.10;;;21.60;;
76729;SDS011;65653;53.106;18.046;2024-03-02T02:52:33;48.40;;;21.80;;
76729;SDS011;65653;53.106;18.046;2024-03-02T02:55:00;52.30;;;22.30;;
76729;SDS011;65653;53.106;18.046;2024-03-02T02:57:26;48.30;;;20.60;;
76729;SDS011;65653;53.106;18.046;2024-03-02T02:59:54;47.90;;;22.70;;
76729;SDS011;65653;53.106;18.046;2024-03-02T03:02:21;47.70;;;20.50;;
76729;SDS011;65653;53.106;18.046;2024-03-02T03:04:48;51.20;;;21.00;;
76729;SDS011;65653;53.106;18.046;2024-03-02T03:07:14;51.20;;;21.20;;
76729;SDS011;65653;53.106;18.046;2024-03-02T03:09:42;46.90;;;21.30;;
76729;SDS011;65653;53.106;18.046;2024-03-02T03:12:08;46.70;;;21.60;;
76729;SDS011;65653;53.106;18.046;2024-03-02T03:14:35;48.90;;;21.90;;
76729;SDS011;65653;53.106;18.046;2024-03-02T03:17:02;50.90;;;21.00;;
76729;SDS011;65653;53.106;18.046;2024-03-02T03:19:29;51.50;;;21.00;;
76729;SDS011;65653;53.106;18.046;2024-03-02T03:21:55;47.50;;;20.50;;
76729;SDS011;65653;53.106;18.046;2024-03-02T03:24:22;50.00;;;21.50;;
76729;SDS011;65653;53.106;18.046;2024-03-02T03:26:49;52.80;;;21.50;;
76729;SDS011;65653;53.106;18.046;2024-03-02T03:29:16;43.80;;;19.60;;
76729;SDS011;65653;53.106;18.046;2024-03-02T03:31:42;47.40;;;20.10;;
76729;SDS011;65653;53.106;18.046;2024-03-02T03:34:08;51.30;;;21.40;;
76729;SDS011;65653;53.106;18.046;2024-03-02T03:36:35;43.10;;;19.30;;
76729;SDS011;65653;53.106;18.046;2024-03-02T03:39:03;43.60;;;20.30;;
76729;SDS011;65653;53.106;18.046;2024-03-02T03:41:31;42.90;;;19.70;;
76729;SDS011;65653;53.106;18.046;2024-03-02T03:43:57;47.20;;;20.70;;
76729;SDS011;65653;53.106;18.046;2024-03-02T03:46:24;42.50;;;18.70;;
76729;SDS011;65653;53.106;18.046;2024-03-02T03:48:50;43.20;;;19.60;;
76729;SDS011;65653;53.106;18.046;2024-03-02T03:51:17;40.90;;;18.80;;
76729;SDS011;65653;53.106;18.046;2024-03-02T03:53:43;46.00;;;21.30;;
76729;SDS011;65653;53.106;18.046;2024-03-02T03:56:10;43.40;;;20.20;;
76729;SDS011;65653;53.106;18.046;2024-03-02T03:58:36;44.70;;;20.40;;
76729;SDS011;65653;53.106;18.046;2024-03-02T04:01:03;34.70;;;17.60;;
76729;SDS011;65653;53.106;18.046;2024-03-02T04:03:29;34.90;;;18.30;;
76729;SDS011;65653;53.106;18.046;2024-03-02T04:05:56;42.80;;;17.20;;
76729;SDS011;65653;53.106;18.046;2024-03-02T04:08:23;38.30;;;18.50;;
76729;SDS011;65653;53.106;18.046;2024-03-02T04:10:49;34.00;;;18.10;;
76729;SDS011;65653;53.106;18.046;2024-03-02T04:13:16;33.60;;;17.70;;
76729;SDS011;65653;53.106;18.046;2024-03-02T04:15:43;35.40;;;17.00;;
76729;SDS011;65653;53.106;18.046;2024-03-02T04:18:09;37.10;;;18.40;;
76729;SDS011;65653;53.106;18.046;2024-03-02T04:20:36;41.10;;;19.10;;
76729;SDS011;65653;53.106;18.046;2024-03-02T04:23:02;37.50;;;17.10;;
76729;SDS011;65653;53.106;18.046;2024-03-02T04:25:29;37.50;;;18.80;;
76729;SDS011;65653;53.106;18.046;2024-03-02T04:27:55;33.20;;;16.20;;
76729;SDS011;65653;53.106;18.046;2024-03-02T04:30:21;39.00;;;19.00;;
76729;SDS011;65653;53.106;18.046;2024-03-02T04:32:48;35.80;;;17.80;;
76729;SDS011;65653;53.106;18.046;2024-03-02T04:35:15;36.10;;;17.70;;
76729;SDS011;65653;53.106;18.046;2024-03-02T04:37:41;32.30;;;15.70;;
76729;SDS011;65653;53.106;18.046;2024-03-02T04:40:08;36.00;;;16.70;;
76729;SDS011;65653;53.106;18.046;2024-03-02T04:42:35;33.80;;;17.00;;
76729;SDS011;65653;53.106;18.046;2024-03-02T04:45:02;30.80;;;15.30;;
76729;SDS011;65653;53.106;18.046;2024-03-02T04:47:29;35.50;;;16.70;;
76729;SDS011;65653;53.106;18.046;2024-03-02T04:49:55;33.30;;;16.00;;
76729;SDS011;65653;53.106;18.046;2024-03-02T04:52:22;31.90;;;16.50;;
76729;SDS011;65653;53.106;18.046;2024-03-02T04:54:49;29.70;;;15.20;;
76729;SDS011;65653;53.106;18.046;2024-03-02T04:57:34;33.90;;;17.40;;
76729;SDS011;65653;53.106;18.046;2024-03-02T05:00:00;31.90;;;17.40;;
76729;SDS011;65653;53.106;18.046;2024-03-02T05:02:27;32.10;;;16.20;;
76729;SDS011;65653;53.106;18.046;2024-03-02T05:04:54;30.70;;;15.90;;
76729;SDS011;65653;53.106;18.046;2024-03-02T05:07:20;34.10;;;16.50;;
76729;SDS011;65653;53.106;18.046;2024-03-02T05:09:47;32.50;;;16.30;;
76729;SDS011;65653;53.106;18.046;2024-03-02T05:12:14;33.10;;;16.70;;
76729;SDS011;65653;53.106;18.046;2024-03-02T05:14:59;32.20;;;16.80;;
76729;SDS011;65653;53.106;18.046;2024-03-02T05:17:26;32.90;;;16.80;;
76729;SDS011;65653;53.106;18.046;2024-03-02T05:19:52;34.90;;;18.10;;
76729;SDS011;65653;53.106;18.046;2024-03-02T05:22:19;31.50;;;16.80;;
76729;SDS011;65653;53.106;18.046;2024-03-02T05:24:45;35.50;;;16.50;;
76729;SDS011;65653;53.106;18.046;2024-03-02T05:27:11;31.00;;;16.00;;
76729;SDS011;65653;53.106;18.046;2024-03-02T05:29:38;32.60;;;16.60;;
76729;SDS011;65653;53.106;18.046;2024-03-02T05:32:04;39.10;;;18.40;;
76729;SDS011;65653;53.106;18.046;2024-03-02T05:34:31;35.90;;;17.60;;
76729;SDS011;65653;53.106;18.046;2024-03-02T05:36:59;31.70;;;16.30;;
76729;SDS011;65653;53.106;18.046;2024-03-02T05:39:25;30.80;;;16.10;;
76729;SDS011;65653;53.106;18.046;2024-03-02T05:41:52;34.70;;;17.10;;
76729;SDS011;65653;53.106;18.046;2024-03-02T05:44:18;31.90;;;16.40;;
76729;SDS011;65653;53.106;18.046;2024-03-02T05:46:45;32.80;;;16.60;;
76729;SDS011;65653;53.106;18.046;2024-03-02T05:49:12;35.50;;;17.40;;
76729;SDS011;65653;53.106;18.046;2024-03-02T05:51:38;33.10;;;16.60;;
76729;SDS011;65653;53.106;18.046;2024-03-02T05:54:05;35.80;;;17.90;;
76729;SDS011;65653;53.106;18.046;2024-03-02T05:56:31;33.50;;;17.80;;
76729;SDS011;65653;53.106;18.046;2024-03-02T05:58:59;36.90;;;18.30;;
76729;SDS011;65653;53.106;18.046;2024-03-02T06:01:41;35.60;;;16.50;;
76729;SDS011;65653;53.106;18.046;2024-03-02T06:04:09;30.90;;;15.10;;
76729;SDS011;65653;53.106;18.046;2024-03-02T06:06:37;35.10;;;18.20;;
76729;SDS011;65653;53.106;18.046;2024-03-02T06:09:04;31.50;;;17.40;;
76729;SDS011;65653;53.106;18.046;2024-03-02T06:11:37;34.00;;;18.00;;
76729;SDS011;65653;53.106;18.046;2024-03-02T06:16:31;29.40;;;15.10;;
76729;SDS011;65653;53.106;18.046;2024-03-02T06:18:58;36.20;;;17.30;;
76729;SDS011;65653;53.106;18.046;2024-03-02T06:21:26;33.50;;;17.00;;
76729;SDS011;65653;53.106;18.046;2024-03-02T06:23:53;32.00;;;17.00;;
76729;SDS011;65653;53.106;18.046;2024-03-02T06:26:20;32.90;;;16.40;;
76729;SDS011;65653;53.106;18.046;2024-03-02T06:28:46;36.30;;;17.60;;
76729;SDS011;65653;53.106;18.046;2024-03-02T06:31:13;31.70;;;17.50;;
76729;SDS011;65653;53.106;18.046;2024-03-02T06:33:39;31.20;;;16.10;;
76729;SDS011;65653;53.106;18.046;2024-03-02T06:36:07;35.00;;;16.40;;
76729;SDS011;65653;53.106;18.046;2024-03-02T06:38:38;30.10;;;15.60;;
76729;SDS011;65653;53.106;18.046;2024-03-02T06:41:06;36.50;;;18.30;;
76729;SDS011;65653;53.106;18.046;2024-03-02T06:43:33;32.60;;;17.60;;
76729;SDS011;65653;53.106;18.046;2024-03-02T06:46:00;31.90;;;16.90;;
76729;SDS011;65653;53.106;18.046;2024-03-02T06:48:27;34.60;;;18.10;;
76729;SDS011;65653;53.106;18.046;2024-03-02T06:50:56;31.40;;;17.20;;
76729;SDS011;65653;53.106;18.046;2024-03-02T06:53:23;35.00;;;16.90;;
76729;SDS011;65653;53.106;18.046;2024-03-02T06:55:50;33.10;;;17.60;;
76729;SDS011;65653;53.106;18.046;2024-03-02T06:58:16;30.90;;;16.90;;
76729;SDS011;65653;53.106;18.046;2024-03-02T07:00:43;29.30;;;14.90;;
76729;SDS011;65653;53.106;18.046;2024-03-02T07:03:13;30.20;;;16.40;;
76729;SDS011;65653;53.106;18.046;2024-03-02T07:05:40;32.70;;;17.10;;
76729;SDS011;65653;53.106;18.046;2024-03-02T07:08:07;30.20;;;16.50;;
76729;SDS011;65653;53.106;18.046;2024-03-02T07:10:34;31.80;;;16.90;;
76729;SDS011;65653;53.106;18.046;2024-03-02T07:13:00;29.90;;;16.60;;
76729;SDS011;65653;53.106;18.046;2024-03-02T07:15:27;31.40;;;16.00;;
76729;SDS011;65653;53.106;18.046;2024-03-02T07:17:53;29.80;;;15.50;;
76729;SDS011;65653;53.106;18.046;2024-03-02T07:20:20;35.90;;;19.10;;
76729;SDS011;65653;53.106;18.046;2024-03-02T07:22:47;34.00;;;16.90;;
76729;SDS011;65653;53.106;18.046;2024-03-02T07:25:13;33.00;;;18.00;;
76729;SDS011;65653;53.106;18.046;2024-03-02T07:27:40;32.80;;;17.40;;
76729;SDS011;65653;53.106;18.046;2024-03-02T07:30:07;30.20;;;15.70;;
76729;SDS011;65653;53.106;18.046;2024-03-02T07:32:33;30.90;;;16.00;;
76729;SDS011;65653;53.106;18.046;2024-03-02T07:35:00;29.60;;;16.30;;
76729;SDS011;65653;53.106;18.046;2024-03-02T07:37:27;30.10;;;15.10;;
76729;SDS011;65653;53.106;18.046;2024-03-02T07:39:54;27.40;;;15.10;;
76729;SDS011;65653;53.106;18.046;2024-03-02T07:42:20;27.40;;;16.00;;
76729;SDS011;65653;53.106;18.046;2024-03-02T07:44:47;30.50;;;15.60;;
76729;SDS011;65653;53.106;18.046;2024-03-02T07:47:14;28.30;;;15.70;;
76729;SDS011;65653;53.106;18.046;2024-03-02T07:49:40;28.30;;;14.20;;
76729;SDS011;65653;53.106;18.046;2024-03-02T07:52:07;25.90;;;15.40;;
76729;SDS011;65653;53.106;18.046;2024-03-02T07:54:33;28.60;;;15.80;;
76729;SDS011;65653;53.106;18.046;2024-03-02T07:57:00;27.10;;;14.40;;
76729;SDS011;65653;53.106;18.046;2024-03-02T07:59:27;26.90;;;15.40;;
76729;SDS011;65653;53.106;18.046;2024-03-02T08:01:54;24.60;;;14.10;;
76729;SDS011;65653;53.106;18.046;2024-03-02T08:04:21;26.40;;;15.00;;
76729;SDS011;65653;53.106;18.046;2024-03-02T08:06:48;23.10;;;14.50;;
76729;SDS011;65653;53.106;18.046;2024-03-02T08:09:14;21.70;;;12.50;;
76729;SDS011;65653;53.106;18.046;2024-03-02T08:11:41;21.80;;;14.10;;
76729;SDS011;65653;53.106;18.046;2024-03-02T08:14:07;23.20;;;14.10;;
76729;SDS011;65653;53.106;18.046;2024-03-02T08:16:34;19.60;;;13.60;;
76729;SDS011;65653;53.106;18.046;2024-03-02T08:19:00;22.80;;;13.40;;
76729;SDS011;65653;53.106;18.046;2024-03-02T08:21:27;23.20;;;13.30;;
76729;SDS011;65653;53.106;18.046;2024-03-02T08:23:57;21.60;;;14.40;;
76729;SDS011;65653;53.106;18.046;2024-03-02T08:26:24;21.40;;;12.30;;
76729;SDS011;65653;53.106;18.046;2024-03-02T08:28:51;23.60;;;13.10;;
76729;SDS011;65653;53.106;18.046;2024-03-02T08:31:17;21.60;;;12.50;;
76729;SDS011;65653;53.106;18.046;2024-03-02T08:33:44;22.10;;;12.90;;
76729;SDS011;65653;53.106;18.046;2024-03-02T08:36:10;19.30;;;13.20;;
76729;SDS011;65653;53.106;18.046;2024-03-02T08:38:37;18.60;;;12.70;;
76729;SDS011;65653;53.106;18.046;2024-03-02T08:41:04;19.40;;;12.50;;
76729;SDS011;65653;53.106;18.046;2024-03-02T08:43:31;19.80;;;12.00;;
76729;SDS011;65653;53.106;18.046;2024-03-02T08:45:57;21.60;;;13.20;;
76729;SDS011;65653;53.106;18.046;2024-03-02T08:48:24;17.70;;;12.70;;
76729;SDS011;65653;53.106;18.046;2024-03-02T08:50:51;17.90;;;13.40;;
76729;SDS011;65653;53.106;18.046;2024-03-02T08:53:17;19.50;;;12.10;;
76729;SDS011;65653;53.106;18.046;2024-03-02T08:55:48;17.80;;;12.20;;
76729;SDS011;65653;53.106;18.046;2024-03-02T08:58:15;18.30;;;12.20;;
76729;SDS011;65653;53.106;18.046;2024-03-02T09:00:41;19.60;;;13.30;;
76729;SDS011;65653;53.106;18.046;2024-03-02T09:03:08;18.50;;;12.60;;
76729;SDS011;65653;53.106;18.046;2024-03-02T09:05:35;20.30;;;13.10;;
76729;SDS011;65653;53.106;18.046;2024-03-02T09:08:01;20.60;;;12.70;;
76729;SDS011;65653;53.106;18.046;2024-03-02T09:10:29;16.40;;;11.60;;
76729;SDS011;65653;53.106;18.046;2024-03-02T09:12:56;18.90;;;12.10;;
76729;SDS011;65653;53.106;18.046;2024-03-02T09:15:22;20.10;;;13.10;;
76729;SDS011;65653;53.106;18.046;2024-03-02T09:17:49;19.80;;;13.20;;
76729;SDS011;65653;53.106;18.046;2024-03-02T09:20:15;17.50;;;12.30;;
76729;SDS011;65653;53.106;18.046;2024-03-02T09:22:42;17.70;;;13.00;;
76729;SDS011;65653;53.106;18.046;2024-03-02T09:25:09;18.40;;;12.20;;
76729;SDS011;65653;53.106;18.046;2024-03-02T09:27:36;20.50;;;12.80;;
76729;SDS011;65653;53.106;18.046;2024-03-02T09:30:06;18.50;;;12.90;;
76729;SDS011;65653;53.106;18.046;2024-03-02T09:32:36;20.40;;;13.00;;
76729;SDS011;65653;53.106;18.046;2024-03-02T09:35:04;17.20;;;11.80;;
76729;SDS011;65653;53.106;18.046;2024-03-02T09:37:30;17.70;;;12.90;;
76729;SDS011;65653;53.106;18.046;2024-03-02T09:39:57;18.20;;;13.20;;
76729;SDS011;65653;53.106;18.046;2024-03-02T09:42:23;18.80;;;12.20;;
76729;SDS011;65653;53.106;18.046;2024-03-02T09:44:50;18.80;;;13.30;;
76729;SDS011;65653;53.106;18.046;2024-03-02T09:47:17;17.10;;;11.70;;
76729;SDS011;65653;53.106;18.046;2024-03-02T09:49:43;18.60;;;12.70;;
76729;SDS011;65653;53.106;18.046;2024-03-02T09:52:10;16.10;;;11.20;;
76729;SDS011;65653;53.106;18.046;2024-03-02T09:54:37;17.10;;;12.40;;
76729;SDS011;65653;53.106;18.046;2024-03-02T09:57:04;17.50;;;11.50;;
76729;SDS011;65653;53.106;18.046;2024-03-02T09:59:31;15.00;;;11.10;;
76729;SDS011;65653;53.106;18.046;2024-03-02T10:02:03;17.70;;;12.80;;
76729;SDS011;65653;53.106;18.046;2024-03-02T10:04:33;15.80;;;11.50;;
76729;SDS011;65653;53.106;18.046;2024-03-02T10:09:37;16.90;;;11.20;;
76729;SDS011;65653;53.106;18.046;2024-03-02T10:12:07;18.20;;;12.40;;
76729;SDS011;65653;53.106;18.046;2024-03-02T10:14:35;14.90;;;10.50;;
76729;SDS011;65653;53.106;18.046;2024-03-02T10:17:06;17.50;;;12.30;;
76729;SDS011;65653;53.106;18.046;2024-03-02T10:19:33;19.00;;;12.20;;
76729;SDS011;65653;53.106;18.046;2024-03-02T10:22:01;17.70;;;11.80;;
76729;SDS011;65653;53.106;18.046;2024-03-02T10:24:41;18.70;;;11.90;;
76729;SDS011;65653;53.106;18.046;2024-03-02T10:27:15;15.10;;;11.60;;
76729;SDS011;65653;53.106;18.046;2024-03-02T10:29:45;14.40;;;10.60;;
76729;SDS011;65653;53.106;18.046;2024-03-02T10:32:12;13.50;;;10.80;;
76729;SDS011;65653;53.106;18.046;2024-03-02T10:34:39;18.20;;;12.70;;
76729;SDS011;65653;53.106;18.046;2024-03-02T10:37:07;14.80;;;12.10;;
76729;SDS011;65653;53.106;18.046;2024-03-02T10:39:34;13.70;;;10.90;;
76729;SDS011;65653;53.106;18.046;2024-03-02T10:42:08;14.60;;;11.20;;
76729;SDS011;65653;53.106;18.046;2024-03-02T10:44:35;24.60;;;12.40;;
76729;SDS011;65653;53.106;18.046;2024-03-02T10:47:02;15.00;;;11.80;;
76729;SDS011;65653;53.106;18.046;2024-03-02T10:49:31;13.80;;;11.70;;
76729;SDS011;65653;53.106;18.046;2024-03-02T10:51:59;17.70;;;13.10;;
76729;SDS011;65653;53.106;18.046;2024-03-02T10:54:26;14.20;;;11.60;;
76729;SDS011;65653;53.106;18.046;2024-03-02T10:56:55;15.90;;;12.50;;
76729;SDS011;65653;53.106;18.046;2024-03-02T11:01:53;15.30;;;13.10;;
76729;SDS011;65653;53.106;18.046;2024-03-02T11:04:24;15.10;;;12.10;;
76729;SDS011;65653;53.106;18.046;2024-03-02T11:06:54;16.80;;;12.60;;
76729;SDS011;65653;53.106;18.046;2024-03-02T11:09:45;14.70;;;12.60;;
76729;SDS011;65653;53.106;18.046;2024-03-02T11:12:31;15.00;;;12.10;;
76729;SDS011;65653;53.106;18.046;2024-03-02T11:15:04;13.30;;;12.00;;
76729;SDS011;65653;53.106;18.046;2024-03-02T11:17:37;14.40;;;12.30;;
76729;SDS011;65653;53.106;18.046;2024-03-02T11:20:07;13.60;;;11.60;;
76729;SDS011;65653;53.106;18.046;2024-03-02T11:22:35;16.40;;;13.00;;
76729;SDS011;65653;53.106;18.046;2024-03-02T11:25:03;15.60;;;12.40;;
76729;SDS011;65653;53.106;18.046;2024-03-02T11:33:05;14.80;;;12.30;;
76729;SDS011;65653;53.106;18.046;2024-03-02T11:35:36;13.90;;;12.40;;
76729;SDS011;65653;53.106;18.046;2024-03-02T11:38:14;15.20;;;13.30;;
76729;SDS011;65653;53.106;18.046;2024-03-02T11:40:41;17.40;;;12.80;;
76729;SDS011;65653;53.106;18.046;2024-03-02T11:43:08;16.10;;;13.40;;
76729;SDS011;65653;53.106;18.046;2024-03-02T11:45:35;18.60;;;15.00;;
76729;SDS011;65653;53.106;18.046;2024-03-02T11:48:06;17.60;;;14.20;;
76729;SDS011;65653;53.106;18.046;2024-03-02T11:50:35;16.50;;;14.70;;
76729;SDS011;65653;53.106;18.046;2024-03-02T11:53:06;16.50;;;13.60;;
76729;SDS011;65653;53.106;18.046;2024-03-02T11:55:37;17.10;;;14.50;;
76729;SDS011;65653;53.106;18.046;2024-03-02T11:58:05;17.80;;;14.50;;
76729;SDS011;65653;53.106;18.046;2024-03-02T12:00:32;19.50;;;13.60;;
76729;SDS011;65653;53.106;18.046;2024-03-02T12:03:06;17.60;;;13.90;;
76729;SDS011;65653;53.106;18.046;2024-03-02T12:08:03;16.60;;;13.80;;
76729;SDS011;65653;53.106;18.046;2024-03-02T12:10:31;16.60;;;14.40;;
76729;SDS011;65653;53.106;18.046;2024-03-02T12:12:59;17.60;;;15.00;;
76729;SDS011;65653;53.106;18.046;2024-03-02T12:15:27;19.10;;;14.50;;
76729;SDS011;65653;53.106;18.046;2024-03-02T12:17:58;17.70;;;14.50;;
76729;SDS011;65653;53.106;18.046;2024-03-02T12:20:27;16.10;;;13.70;;
76729;SDS011;65653;53.106;18.046;2024-03-02T12:22:55;16.50;;;14.60;;
76729;SDS011;65653;53.106;18.046;2024-03-02T12:25:24;16.50;;;14.60;;
76729;SDS011;65653;53.106;18.046;2024-03-02T12:27:55;18.50;;;14.30;;
76729;SDS011;65653;53.106;18.046;2024-03-02T12:30:23;18.10;;;14.20;;
76729;SDS011;65653;53.106;18.046;2024-03-02T12:32:50;17.10;;;14.40;;
76729;SDS011;65653;53.106;18.046;2024-03-02T12:35:18;15.20;;;13.30;;
76729;SDS011;65653;53.106;18.046;2024-03-02T12:37:46;18.10;;;14.60;;
76729;SDS011;65653;53.106;18.046;2024-03-02T12:40:14;18.50;;;13.90;;
76729;SDS011;65653;53.106;18.046;2024-03-02T12:42:45;17.90;;;14.90;;
76729;SDS011;65653;53.106;18.046;2024-03-02T12:45:12;16.90;;;13.70;;
76729;SDS011;65653;53.106;18.046;2024-03-02T12:47:40;15.70;;;13.90;;
76729;SDS011;65653;53.106;18.046;2024-03-02T12:50:08;17.80;;;15.00;;
76729;SDS011;65653;53.106;18.046;2024-03-02T12:52:35;19.80;;;14.80;;
76729;SDS011;65653;53.106;18.046;2024-03-02T12:55:05;19.50;;;15.30;;
76729;SDS011;65653;53.106;18.046;2024-03-02T12:57:33;20.30;;;15.30;;
76729;SDS011;65653;53.106;18.046;2024-03-02T13:00:01;19.10;;;14.90;;
76729;SDS011;65653;53.106;18.046;2024-03-02T13:02:35;20.40;;;14.20;;
76729;SDS011;65653;53.106;18.046;2024-03-02T13:05:03;18.30;;;14.20;;
76729;SDS011;65653;53.106;18.046;2024-03-02T13:07:32;20.40;;;15.00;;
76729;SDS011;65653;53.106;18.046;2024-03-02T13:09:59;18.50;;;15.00;;
76729;SDS011;65653;53.106;18.046;2024-03-02T13:12:27;18.10;;;13.50;;
76729;SDS011;65653;53.106;18.046;2024-03-02T13:14:54;21.20;;;15.70;;
76729;SDS011;65653;53.106;18.046;2024-03-02T13:17:20;19.80;;;14.90;;
76729;SDS011;65653;53.106;18.046;2024-03-02T13:20:06;20.10;;;15.40;;
76729;SDS011;65653;53.106;18.046;2024-03-02T13:22:36;20.80;;;16.20;;
76729;SDS011;65653;53.106;18.046;2024-03-02T13:25:03;26.20;;;17.40;;
76729;SDS011;65653;53.106;18.046;2024-03-02T13:27:30;22.30;;;16.40;;
76729;SDS011;65653;53.106;18.046;2024-03-02T13:29:58;22.90;;;16.20;;
76729;SDS011;65653;53.106;18.046;2024-03-02T13:32:25;23.50;;;16.20;;
76729;SDS011;65653;53.106;18.046;2024-03-02T13:34:52;22.00;;;16.00;;
76729;SDS011;65653;53.106;18.046;2024-03-02T13:37:19;25.90;;;17.00;;
76729;SDS011;65653;53.106;18.046;2024-03-02T13:39:49;21.50;;;17.50;;
76729;SDS011;65653;53.106;18.046;2024-03-02T13:42:16;22.70;;;15.70;;
76729;SDS011;65653;53.106;18.046;2024-03-02T13:44:43;23.40;;;16.10;;
76729;SDS011;65653;53.106;18.046;2024-03-02T13:47:13;22.80;;;18.20;;
76729;SDS011;65653;53.106;18.046;2024-03-02T13:49:39;21.00;;;16.40;;
76729;SDS011;65653;53.106;18.046;2024-03-02T13:52:10;24.50;;;16.40;;
76729;SDS011;65653;53.106;18.046;2024-03-02T13:54:37;24.50;;;18.20;;
76729;SDS011;65653;53.106;18.046;2024-03-02T13:57:05;23.40;;;16.50;;
76729;SDS011;65653;53.106;18.046;2024-03-02T13:59:34;25.50;;;18.20;;
76729;SDS011;65653;53.106;18.046;2024-03-02T14:02:01;24.90;;;16.70;;
76729;SDS011;65653;53.106;18.046;2024-03-02T14:04:32;22.50;;;16.40;;
76729;SDS011;65653;53.106;18.046;2024-03-02T14:07:00;27.20;;;17.40;;
76729;SDS011;65653;53.106;18.046;2024-03-02T14:09:27;24.60;;;16.70;;
76729;SDS011;65653;53.106;18.046;2024-03-02T14:11:54;25.50;;;16.90;;
76729;SDS011;65653;53.106;18.046;2024-03-02T14:14:21;31.30;;;19.30;;
76729;SDS011;65653;53.106;18.046;2024-03-02T14:16:49;29.00;;;18.80;;
76729;SDS011;65653;53.106;18.046;2024-03-02T14:19:15;28.00;;;19.40;;
76729;SDS011;65653;53.106;18.046;2024-03-02T14:21:42;30.00;;;19.10;;
76729;SDS011;65653;53.106;18.046;2024-03-02T14:24:09;30.90;;;19.50;;
76729;SDS011;65653;53.106;18.046;2024-03-02T14:26:36;35.20;;;20.90;;
76729;SDS011;65653;53.106;18.046;2024-03-02T14:29:03;32.30;;;19.50;;
76729;SDS011;65653;53.106;18.046;2024-03-02T14:31:30;32.40;;;19.80;;
76729;SDS011;65653;53.106;18.046;2024-03-02T14:33:57;31.00;;;17.40;;